sensor_id;sensor_type;location;lat;lon;timestamp;temperature;humidity
38380;DHT22;38377;47.418;18.882;2023-07-13T00:00:13;22.50;99.90
38380;DHT22;38377;47.418;18.882;2023-07-13T00:02:42;22.60;99.90
38380;DHT22;38377;47.418;18.882;2023-07-13T00:05:08;22.60;99.90
38380;DHT22;38377;47.418;18.882;2023-07-13T00:07:35;22.60;99.90
38380;DHT22;38377;47.418;18.882;2023-07-13T00:10:01;22.60;99.90
38380;DHT22;38377;47.418;18.882;2023-07-13T00:12:32;22.60;99.90
38380;DHT22;38377;47.418;18.882;2023-07-13T00:15:00;22.70;99.90
38380;DHT22;38377;47.418;18.882;2023-07-13T00:17:27;22.70;99.90
38380;DHT22;38377;47.418;18.882;2023-07-13T00:19:53;22.70;99.90
38380;DHT22;38377;47.418;18.882;2023-07-13T00:22:19;22.70;99.90
38380;DHT22;38377;47.418;18.882;2023-07-13T00:24:45;22.70;99.90
38380;DHT22;38377;47.418;18.882;2023-07-13T00:27:11;22.70;99.90
38380;DHT22;38377;47.418;18.882;2023-07-13T00:29:37;22.70;99.90
38380;DHT22;38377;47.418;18.882;2023-07-13T00:32:05;22.80;99.90
38380;DHT22;38377;47.418;18.882;2023-07-13T00:34:31;22.80;99.90
38380;DHT22;38377;47.418;18.882;2023-07-13T00:36:57;22.80;99.90
38380;DHT22;38377;47.418;18.882;2023-07-13T00:39:23;22.80;99.90
38380;DHT22;38377;47.418;18.882;2023-07-13T00:41:50;22.80;99.90
38380;DHT22;38377;47.418;18.882;2023-07-13T00:44:17;22.90;99.90
38380;DHT22;38377;47.418;18.882;2023-07-13T00:46:43;22.80;99.90
38380;DHT22;38377;47.418;18.882;2023-07-13T00:49:12;22.90;99.70
38380;DHT22;38377;47.418;18.882;2023-07-13T00:51:57;22.90;99.50
38380;DHT22;38377;47.418;18.882;2023-07-13T00:54:36;22.90;99.90
38380;DHT22;38377;47.418;18.882;2023-07-13T00:57:05;22.70;99.50
38380;DHT22;38377;47.418;18.882;2023-07-13T00:59:34;22.70;99.50
38380;DHT22;38377;47.418;18.882;2023-07-13T01:02:00;22.60;99.70
38380;DHT22;38377;47.418;18.882;2023-07-13T01:04:26;22.50;99.90
38380;DHT22;38377;47.418;18.882;2023-07-13T01:06:53;22.40;99.80
38380;DHT22;38377;47.418;18.882;2023-07-13T01:09:19;22.30;99.90
38380;DHT22;38377;47.418;18.882;2023-07-13T01:11:46;22.20;99.90
38380;DHT22;38377;47.418;18.882;2023-07-13T01:14:13;22.20;99.90
38380;DHT22;38377;47.418;18.882;2023-07-13T01:16:40;22.20;99.90
38380;DHT22;38377;47.418;18.882;2023-07-13T01:19:41;22.10;99.90
38380;DHT22;38377;47.418;18.882;2023-07-13T01:22:09;21.90;99.90
38380;DHT22;38377;47.418;18.882;2023-07-13T01:24:37;21.70;99.90
38380;DHT22;38377;47.418;18.882;2023-07-13T01:27:04;21.60;99.90
38380;DHT22;38377;47.418;18.882;2023-07-13T01:29:32;21.50;99.90
38380;DHT22;38377;47.418;18.882;2023-07-13T01:31:59;21.50;99.90
38380;DHT22;38377;47.418;18.882;2023-07-13T01:34:26;21.40;99.90
38380;DHT22;38377;47.418;18.882;2023-07-13T01:36:52;21.20;99.90
38380;DHT22;38377;47.418;18.882;2023-07-13T01:39:20;21.10;99.90
38380;DHT22;38377;47.418;18.882;2023-07-13T01:41:46;21.00;99.90
38380;DHT22;38377;47.418;18.882;2023-07-13T01:44:11;21.00;99.90
38380;DHT22;38377;47.418;18.882;2023-07-13T01:46:37;21.00;99.90
38380;DHT22;38377;47.418;18.882;2023-07-13T01:49:03;21.00;99.90
38380;DHT22;38377;47.418;18.882;2023-07-13T01:51:28;20.90;99.90
38380;DHT22;38377;47.418;18.882;2023-07-13T01:53:54;20.80;99.90
38380;DHT22;38377;47.418;18.882;2023-07-13T01:56:20;20.70;99.90
38380;DHT22;38377;47.418;18.882;2023-07-13T01:58:46;20.50;99.90
38380;DHT22;38377;47.418;18.882;2023-07-13T02:01:12;20.40;99.90
38380;DHT22;38377;47.418;18.882;2023-07-13T02:03:37;20.40;99.90
38380;DHT22;38377;47.418;18.882;2023-07-13T02:06:03;20.30;99.90
38380;DHT22;38377;47.418;18.882;2023-07-13T02:08:29;20.30;99.90
38380;DHT22;38377;47.418;18.882;2023-07-13T02:10:55;20.30;99.90
38380;DHT22;38377;47.418;18.882;2023-07-13T02:13:20;20.10;99.90
38380;DHT22;38377;47.418;18.882;2023-07-13T02:15:46;19.90;99.90
38380;DHT22;38377;47.418;18.882;2023-07-13T02:18:11;19.90;99.90
38380;DHT22;38377;47.418;18.882;2023-07-13T02:20:42;19.90;99.90
38380;DHT22;38377;47.418;18.882;2023-07-13T02:23:08;19.80;99.90
38380;DHT22;38377;47.418;18.882;2023-07-13T02:25:34;19.80;99.90
38380;DHT22;38377;47.418;18.882;2023-07-13T02:27:59;19.80;99.90
38380;DHT22;38377;47.418;18.882;2023-07-13T02:30:25;19.70;99.90
38380;DHT22;38377;47.418;18.882;2023-07-13T02:32:51;19.80;99.90
38380;DHT22;38377;47.418;18.882;2023-07-13T02:35:17;19.70;99.90
38380;DHT22;38377;47.418;18.882;2023-07-13T02:37:42;19.60;99.90
38380;DHT22;38377;47.418;18.882;2023-07-13T02:40:08;19.50;99.90
38380;DHT22;38377;47.418;18.882;2023-07-13T02:42:34;19.50;99.90
38380;DHT22;38377;47.418;18.882;2023-07-13T02:45:00;19.40;99.90
38380;DHT22;38377;47.418;18.882;2023-07-13T02:47:26;19.40;99.90
38380;DHT22;38377;47.418;18.882;2023-07-13T02:49:52;19.40;99.90
38380;DHT22;38377;47.418;18.882;2023-07-13T02:52:18;19.40;99.90
38380;DHT22;38377;47.418;18.882;2023-07-13T02:54:43;19.40;99.90
38380;DHT22;38377;47.418;18.882;2023-07-13T02:57:09;19.30;99.90
38380;DHT22;38377;47.418;18.882;2023-07-13T02:59:35;19.30;99.90
38380;DHT22;38377;47.418;18.882;2023-07-13T03:02:02;19.30;99.90
38380;DHT22;38377;47.418;18.882;2023-07-13T03:04:27;19.30;99.90
38380;DHT22;38377;47.418;18.882;2023-07-13T03:06:53;19.30;99.90
38380;DHT22;38377;47.418;18.882;2023-07-13T03:09:24;19.20;99.90
38380;DHT22;38377;47.418;18.882;2023-07-13T03:11:55;19.30;99.90
38380;DHT22;38377;47.418;18.882;2023-07-13T03:14:21;19.40;99.90
38380;DHT22;38377;47.418;18.882;2023-07-13T03:16:47;19.60;99.90
38380;DHT22;38377;47.418;18.882;2023-07-13T03:19:13;19.60;99.90
38380;DHT22;38377;47.418;18.882;2023-07-13T03:21:38;19.70;99.90
38380;DHT22;38377;47.418;18.882;2023-07-13T03:24:05;19.80;99.90
38380;DHT22;38377;47.418;18.882;2023-07-13T03:26:31;19.90;99.90
38380;DHT22;38377;47.418;18.882;2023-07-13T03:28:57;20.00;99.90
38380;DHT22;38377;47.418;18.882;2023-07-13T03:31:27;20.10;99.90
38380;DHT22;38377;47.418;18.882;2023-07-13T03:33:54;20.10;99.90
38380;DHT22;38377;47.418;18.882;2023-07-13T03:36:22;20.20;99.90
38380;DHT22;38377;47.418;18.882;2023-07-13T03:38:55;20.20;99.90
38380;DHT22;38377;47.418;18.882;2023-07-13T03:41:21;20.30;99.90
38380;DHT22;38377;47.418;18.882;2023-07-13T03:43:48;20.40;99.90
38380;DHT22;38377;47.418;18.882;2023-07-13T03:46:14;20.40;99.90
38380;DHT22;38377;47.418;18.882;2023-07-13T03:48:41;20.50;99.90
38380;DHT22;38377;47.418;18.882;2023-07-13T03:51:09;20.50;99.90
38380;DHT22;38377;47.418;18.882;2023-07-13T03:53:38;20.50;99.90
38380;DHT22;38377;47.418;18.882;2023-07-13T03:56:05;20.60;99.90
38380;DHT22;38377;47.418;18.882;2023-07-13T03:58:32;20.60;99.90
38380;DHT22;38377;47.418;18.882;2023-07-13T04:00:59;20.70;99.90
38380;DHT22;38377;47.418;18.882;2023-07-13T04:03:26;20.80;99.90
38380;DHT22;38377;47.418;18.882;2023-07-13T04:05:54;20.90;99.90
38380;DHT22;38377;47.418;18.882;2023-07-13T04:08:19;21.00;99.90
38380;DHT22;38377;47.418;18.882;2023-07-13T04:10:46;21.10;99.90
38380;DHT22;38377;47.418;18.882;2023-07-13T04:13:11;21.20;99.90
38380;DHT22;38377;47.418;18.882;2023-07-13T04:15:38;21.30;99.90
38380;DHT22;38377;47.418;18.882;2023-07-13T04:18:04;21.40;99.90
38380;DHT22;38377;47.418;18.882;2023-07-13T04:20:30;21.30;99.90
38380;DHT22;38377;47.418;18.882;2023-07-13T04:22:56;21.20;99.90
38380;DHT22;38377;47.418;18.882;2023-07-13T04:25:22;21.20;99.90
38380;DHT22;38377;47.418;18.882;2023-07-13T04:27:49;21.20;99.90
38380;DHT22;38377;47.418;18.882;2023-07-13T04:30:14;21.10;99.90
38380;DHT22;38377;47.418;18.882;2023-07-13T04:32:40;21.00;99.90
38380;DHT22;38377;47.418;18.882;2023-07-13T04:35:06;20.90;99.90
38380;DHT22;38377;47.418;18.882;2023-07-13T04:37:32;20.80;99.90
38380;DHT22;38377;47.418;18.882;2023-07-13T04:39:57;20.70;99.90
38380;DHT22;38377;47.418;18.882;2023-07-13T04:42:23;20.70;99.90
38380;DHT22;38377;47.418;18.882;2023-07-13T04:44:49;20.60;99.90
38380;DHT22;38377;47.418;18.882;2023-07-13T04:47:15;20.60;99.90
38380;DHT22;38377;47.418;18.882;2023-07-13T04:49:41;20.50;99.90
38380;DHT22;38377;47.418;18.882;2023-07-13T04:52:07;20.40;99.90
38380;DHT22;38377;47.418;18.882;2023-07-13T04:54:34;20.20;99.90
38380;DHT22;38377;47.418;18.882;2023-07-13T04:57:00;20.10;99.90
38380;DHT22;38377;47.418;18.882;2023-07-13T04:59:26;20.10;99.90
38380;DHT22;38377;47.418;18.882;2023-07-13T05:01:52;20.00;99.90
38380;DHT22;38377;47.418;18.882;2023-07-13T05:04:18;19.90;99.90
38380;DHT22;38377;47.418;18.882;2023-07-13T05:06:44;19.80;99.90
38380;DHT22;38377;47.418;18.882;2023-07-13T05:09:09;19.80;99.90
38380;DHT22;38377;47.418;18.882;2023-07-13T05:11:35;19.70;99.90
38380;DHT22;38377;47.418;18.882;2023-07-13T05:14:00;19.60;99.90
38380;DHT22;38377;47.418;18.882;2023-07-13T05:16:29;19.60;99.90
38380;DHT22;38377;47.418;18.882;2023-07-13T05:18:55;19.50;99.90
38380;DHT22;38377;47.418;18.882;2023-07-13T05:21:20;19.40;99.90
38380;DHT22;38377;47.418;18.882;2023-07-13T05:23:47;19.20;99.90
38380;DHT22;38377;47.418;18.882;2023-07-13T05:26:13;19.10;99.90
38380;DHT22;38377;47.418;18.882;2023-07-13T05:28:39;19.10;99.90
38380;DHT22;38377;47.418;18.882;2023-07-13T05:31:07;19.00;99.90
38380;DHT22;38377;47.418;18.882;2023-07-13T05:33:33;19.00;99.90
38380;DHT22;38377;47.418;18.882;2023-07-13T05:35:59;18.90;99.90
38380;DHT22;38377;47.418;18.882;2023-07-13T05:38:26;18.70;99.90
38380;DHT22;38377;47.418;18.882;2023-07-13T05:40:54;18.60;99.90
38380;DHT22;38377;47.418;18.882;2023-07-13T05:43:20;18.60;99.90
38380;DHT22;38377;47.418;18.882;2023-07-13T05:45:46;18.50;99.90
38380;DHT22;38377;47.418;18.882;2023-07-13T05:48:12;18.50;99.90
38380;DHT22;38377;47.418;18.882;2023-07-13T05:50:37;18.40;99.90
38380;DHT22;38377;47.418;18.882;2023-07-13T05:53:03;18.40;99.90
38380;DHT22;38377;47.418;18.882;2023-07-13T05:55:29;18.40;99.90
38380;DHT22;38377;47.418;18.882;2023-07-13T05:57:54;18.40;99.90
38380;DHT22;38377;47.418;18.882;2023-07-13T06:00:20;18.40;99.90
38380;DHT22;38377;47.418;18.882;2023-07-13T06:02:46;18.30;99.90
38380;DHT22;38377;47.418;18.882;2023-07-13T06:05:13;18.30;99.90
38380;DHT22;38377;47.418;18.882;2023-07-13T06:07:38;18.20;99.90
38380;DHT22;38377;47.418;18.882;2023-07-13T06:10:04;18.20;99.90
38380;DHT22;38377;47.418;18.882;2023-07-13T06:12:30;18.10;99.90
38380;DHT22;38377;47.418;18.882;2023-07-13T06:14:56;18.10;99.90
38380;DHT22;38377;47.418;18.882;2023-07-13T06:17:21;18.20;99.90
38380;DHT22;38377;47.418;18.882;2023-07-13T06:19:47;18.20;99.90
38380;DHT22;38377;47.418;18.882;2023-07-13T06:22:13;18.20;99.90
38380;DHT22;38377;47.418;18.882;2023-07-13T06:24:38;18.30;99.90
38380;DHT22;38377;47.418;18.882;2023-07-13T06:27:04;18.30;99.90
38380;DHT22;38377;47.418;18.882;2023-07-13T06:29:30;18.40;99.90
38380;DHT22;38377;47.418;18.882;2023-07-13T06:31:56;18.40;99.90
38380;DHT22;38377;47.418;18.882;2023-07-13T06:34:22;18.50;99.90
38380;DHT22;38377;47.418;18.882;2023-07-13T06:36:48;18.50;99.90
38380;DHT22;38377;47.418;18.882;2023-07-13T06:39:14;18.60;99.90
38380;DHT22;38377;47.418;18.882;2023-07-13T06:41:40;18.60;99.90
38380;DHT22;38377;47.418;18.882;2023-07-13T06:44:05;18.70;99.90
38380;DHT22;38377;47.418;18.882;2023-07-13T06:46:31;18.80;99.90
38380;DHT22;38377;47.418;18.882;2023-07-13T06:48:57;18.90;99.90
38380;DHT22;38377;47.418;18.882;2023-07-13T06:51:23;19.00;99.90
38380;DHT22;38377;47.418;18.882;2023-07-13T06:53:49;19.10;99.90
38380;DHT22;38377;47.418;18.882;2023-07-13T06:56:15;19.30;99.90
38380;DHT22;38377;47.418;18.882;2023-07-13T06:58:41;19.50;99.90
38380;DHT22;38377;47.418;18.882;2023-07-13T07:01:08;19.70;99.90
38380;DHT22;38377;47.418;18.882;2023-07-13T07:03:34;19.90;99.90
38380;DHT22;38377;47.418;18.882;2023-07-13T07:06:20;20.10;99.90
38380;DHT22;38377;47.418;18.882;2023-07-13T07:08:49;20.20;99.90
38380;DHT22;38377;47.418;18.882;2023-07-13T07:11:18;20.20;99.90
38380;DHT22;38377;47.418;18.882;2023-07-13T07:13:44;20.10;99.90
38380;DHT22;38377;47.418;18.882;2023-07-13T07:16:10;20.00;99.90
38380;DHT22;38377;47.418;18.882;2023-07-13T07:18:36;20.00;99.90
38380;DHT22;38377;47.418;18.882;2023-07-13T07:21:01;20.00;99.90
38380;DHT22;38377;47.418;18.882;2023-07-13T07:23:28;20.10;99.90
38380;DHT22;38377;47.418;18.882;2023-07-13T07:25:53;20.10;99.90
38380;DHT22;38377;47.418;18.882;2023-07-13T07:28:20;20.10;99.90
38380;DHT22;38377;47.418;18.882;2023-07-13T07:30:47;20.30;99.90
38380;DHT22;38377;47.418;18.882;2023-07-13T07:33:13;20.40;99.90
38380;DHT22;38377;47.418;18.882;2023-07-13T07:35:39;20.50;99.90
38380;DHT22;38377;47.418;18.882;2023-07-13T07:38:05;20.70;99.90
38380;DHT22;38377;47.418;18.882;2023-07-13T07:40:31;20.70;99.90
38380;DHT22;38377;47.418;18.882;2023-07-13T07:42:57;20.80;99.90
38380;DHT22;38377;47.418;18.882;2023-07-13T07:45:23;21.00;99.90
38380;DHT22;38377;47.418;18.882;2023-07-13T07:47:49;21.30;99.90
38380;DHT22;38377;47.418;18.882;2023-07-13T07:50:15;21.50;99.90
38380;DHT22;38377;47.418;18.882;2023-07-13T07:52:41;21.60;99.90
38380;DHT22;38377;47.418;18.882;2023-07-13T07:55:07;21.90;99.90
38380;DHT22;38377;47.418;18.882;2023-07-13T07:57:33;22.20;99.90
38380;DHT22;38377;47.418;18.882;2023-07-13T07:59:59;22.40;99.90
38380;DHT22;38377;47.418;18.882;2023-07-13T08:02:25;22.70;99.90
38380;DHT22;38377;47.418;18.882;2023-07-13T08:04:51;22.90;99.90
38380;DHT22;38377;47.418;18.882;2023-07-13T08:07:18;22.70;99.90
38380;DHT22;38377;47.418;18.882;2023-07-13T08:09:44;22.40;99.90
38380;DHT22;38377;47.418;18.882;2023-07-13T08:12:10;22.20;99.90
38380;DHT22;38377;47.418;18.882;2023-07-13T08:14:35;22.20;99.90
38380;DHT22;38377;47.418;18.882;2023-07-13T08:17:01;22.10;99.90
38380;DHT22;38377;47.418;18.882;2023-07-13T08:19:26;22.20;99.90
38380;DHT22;38377;47.418;18.882;2023-07-13T08:21:52;22.30;99.90
38380;DHT22;38377;47.418;18.882;2023-07-13T08:24:18;22.40;99.90
38380;DHT22;38377;47.418;18.882;2023-07-13T08:26:44;22.90;99.90
38380;DHT22;38377;47.418;18.882;2023-07-13T08:29:11;23.40;99.90
38380;DHT22;38377;47.418;18.882;2023-07-13T08:31:37;23.80;99.90
38380;DHT22;38377;47.418;18.882;2023-07-13T08:34:02;24.00;99.90
38380;DHT22;38377;47.418;18.882;2023-07-13T08:36:29;24.10;99.90
38380;DHT22;38377;47.418;18.882;2023-07-13T08:38:54;24.00;99.90
38380;DHT22;38377;47.418;18.882;2023-07-13T08:41:21;24.20;99.90
38380;DHT22;38377;47.418;18.882;2023-07-13T08:43:50;24.20;99.90
38380;DHT22;38377;47.418;18.882;2023-07-13T08:46:32;24.50;99.90
38380;DHT22;38377;47.418;18.882;2023-07-13T08:49:05;24.70;99.90
38380;DHT22;38377;47.418;18.882;2023-07-13T08:54:45;24.90;99.90
38380;DHT22;38377;47.418;18.882;2023-07-13T08:57:21;25.00;99.90
38380;DHT22;38377;47.418;18.882;2023-07-13T08:59:47;25.20;99.90
38380;DHT22;38377;47.418;18.882;2023-07-13T09:02:23;25.40;99.90
38380;DHT22;38377;47.418;18.882;2023-07-13T09:10:23;26.00;99.90
38380;DHT22;38377;47.418;18.882;2023-07-13T09:15:56;26.30;99.90
38380;DHT22;38377;47.418;18.882;2023-07-13T09:23:29;26.50;99.90
38380;DHT22;38377;47.418;18.882;2023-07-13T09:26:21;26.50;99.90
38380;DHT22;38377;47.418;18.882;2023-07-13T09:29:12;26.20;99.90
38380;DHT22;38377;47.418;18.882;2023-07-13T09:31:42;26.10;99.90
38380;DHT22;38377;47.418;18.882;2023-07-13T09:34:12;26.20;99.90
38380;DHT22;38377;47.418;18.882;2023-07-13T09:36:37;26.30;99.90
38380;DHT22;38377;47.418;18.882;2023-07-13T09:39:27;26.30;99.60
38380;DHT22;38377;47.418;18.882;2023-07-13T09:44:34;26.40;99.90
38380;DHT22;38377;47.418;18.882;2023-07-13T09:47:01;26.10;99.90
38380;DHT22;38377;47.418;18.882;2023-07-13T09:49:31;26.10;99.90
38380;DHT22;38377;47.418;18.882;2023-07-13T09:52:04;26.30;99.90
38380;DHT22;38377;47.418;18.882;2023-07-13T09:54:34;26.20;99.90
38380;DHT22;38377;47.418;18.882;2023-07-13T09:57:01;26.50;99.90
38380;DHT22;38377;47.418;18.882;2023-07-13T09:59:33;26.40;99.90
38380;DHT22;38377;47.418;18.882;2023-07-13T10:01:59;26.10;99.90
38380;DHT22;38377;47.418;18.882;2023-07-13T10:04:32;26.10;99.90
38380;DHT22;38377;47.418;18.882;2023-07-13T10:07:06;26.30;99.90
38380;DHT22;38377;47.418;18.882;2023-07-13T10:09:32;26.50;99.90
38380;DHT22;38377;47.418;18.882;2023-07-13T10:11:58;27.00;99.90
38380;DHT22;38377;47.418;18.882;2023-07-13T10:14:23;27.30;99.50
38380;DHT22;38377;47.418;18.882;2023-07-13T10:17:01;27.30;98.40
38380;DHT22;38377;47.418;18.882;2023-07-13T10:19:32;27.50;98.10
38380;DHT22;38377;47.418;18.882;2023-07-13T10:22:07;27.70;97.40
38380;DHT22;38377;47.418;18.882;2023-07-13T10:24:39;28.10;97.40
38380;DHT22;38377;47.418;18.882;2023-07-13T10:27:33;28.20;95.80
38380;DHT22;38377;47.418;18.882;2023-07-13T10:30:17;28.00;94.80
38380;DHT22;38377;47.418;18.882;2023-07-13T10:32:45;27.60;95.70
38380;DHT22;38377;47.418;18.882;2023-07-13T10:35:13;27.40;95.60
38380;DHT22;38377;47.418;18.882;2023-07-13T10:40:28;27.70;95.70
38380;DHT22;38377;47.418;18.882;2023-07-13T10:42:57;27.70;95.50
38380;DHT22;38377;47.418;18.882;2023-07-13T10:45:25;27.50;95.30
38380;DHT22;38377;47.418;18.882;2023-07-13T10:47:54;27.40;94.90
38380;DHT22;38377;47.418;18.882;2023-07-13T10:50:26;27.10;96.40
38380;DHT22;38377;47.418;18.882;2023-07-13T10:53:17;27.00;95.90
38380;DHT22;38377;47.418;18.882;2023-07-13T10:58:28;26.80;95.70
38380;DHT22;38377;47.418;18.882;2023-07-13T11:03:33;26.90;95.60
38380;DHT22;38377;47.418;18.882;2023-07-13T11:06:11;26.60;95.80
38380;DHT22;38377;47.418;18.882;2023-07-13T11:08:56;26.40;96.00
38380;DHT22;38377;47.418;18.882;2023-07-13T11:18:49;26.90;95.50
38380;DHT22;38377;47.418;18.882;2023-07-13T11:21:18;27.30;95.40
38380;DHT22;38377;47.418;18.882;2023-07-13T11:23:51;27.60;96.20
38380;DHT22;38377;47.418;18.882;2023-07-13T11:29:37;27.30;95.10
38380;DHT22;38377;47.418;18.882;2023-07-13T11:32:25;26.70;96.20
38380;DHT22;38377;47.418;18.882;2023-07-13T11:34:55;26.70;95.90
38380;DHT22;38377;47.418;18.882;2023-07-13T11:37:22;27.10;96.50
38380;DHT22;38377;47.418;18.882;2023-07-13T11:39:50;27.20;95.10
38380;DHT22;38377;47.418;18.882;2023-07-13T11:42:18;27.00;95.80
38380;DHT22;38377;47.418;18.882;2023-07-13T11:44:47;26.70;95.70
38380;DHT22;38377;47.418;18.882;2023-07-13T11:47:21;26.40;95.70
38380;DHT22;38377;47.418;18.882;2023-07-13T11:49:53;27.00;95.00
38380;DHT22;38377;47.418;18.882;2023-07-13T11:52:35;27.10;93.30
38380;DHT22;38377;47.418;18.882;2023-07-13T11:55:08;27.00;92.60
38380;DHT22;38377;47.418;18.882;2023-07-13T11:57:43;26.80;94.10
38380;DHT22;38377;47.418;18.882;2023-07-13T12:00:18;27.10;93.70
38380;DHT22;38377;47.418;18.882;2023-07-13T12:02:47;27.50;93.60
38380;DHT22;38377;47.418;18.882;2023-07-13T12:05:16;27.60;92.00
38380;DHT22;38377;47.418;18.882;2023-07-13T12:07:43;27.50;90.60
38380;DHT22;38377;47.418;18.882;2023-07-13T12:12:48;27.20;92.10
38380;DHT22;38377;47.418;18.882;2023-07-13T12:15:13;27.40;92.00
38380;DHT22;38377;47.418;18.882;2023-07-13T12:17:41;27.50;90.80
38380;DHT22;38377;47.418;18.882;2023-07-13T12:20:26;27.70;91.50
38380;DHT22;38377;47.418;18.882;2023-07-13T12:22:52;27.60;90.60
38380;DHT22;38377;47.418;18.882;2023-07-13T12:25:19;27.80;90.70
38380;DHT22;38377;47.418;18.882;2023-07-13T12:27:50;28.00;89.90
38380;DHT22;38377;47.418;18.882;2023-07-13T12:33:05;28.00;91.30
38380;DHT22;38377;47.418;18.882;2023-07-13T12:35:41;28.20;89.40
38380;DHT22;38377;47.418;18.882;2023-07-13T12:38:11;28.10;90.20
38380;DHT22;38377;47.418;18.882;2023-07-13T12:40:37;28.00;90.50
38380;DHT22;38377;47.418;18.882;2023-07-13T12:43:04;28.00;90.90
38380;DHT22;38377;47.418;18.882;2023-07-13T12:45:32;28.30;90.90
38380;DHT22;38377;47.418;18.882;2023-07-13T12:48:11;28.60;89.20
38380;DHT22;38377;47.418;18.882;2023-07-13T12:50:46;28.60;86.10
38380;DHT22;38377;47.418;18.882;2023-07-13T12:53:19;28.40;88.90
38380;DHT22;38377;47.418;18.882;2023-07-13T12:55:54;28.50;90.40
38380;DHT22;38377;47.418;18.882;2023-07-13T12:58:41;28.60;90.00
38380;DHT22;38377;47.418;18.882;2023-07-13T13:01:10;28.70;90.50
38380;DHT22;38377;47.418;18.882;2023-07-13T13:03:46;29.10;89.70
38380;DHT22;38377;47.418;18.882;2023-07-13T13:08:49;29.30;88.10
38380;DHT22;38377;47.418;18.882;2023-07-13T13:11:16;29.20;85.30
38380;DHT22;38377;47.418;18.882;2023-07-13T13:13:42;29.00;86.00
38380;DHT22;38377;47.418;18.882;2023-07-13T13:19:00;28.80;83.40
38380;DHT22;38377;47.418;18.882;2023-07-13T13:21:27;28.70;84.50
38380;DHT22;38377;47.418;18.882;2023-07-13T13:23:53;28.50;86.70
38380;DHT22;38377;47.418;18.882;2023-07-13T13:26:21;28.20;87.00
38380;DHT22;38377;47.418;18.882;2023-07-13T13:28:47;28.00;86.20
38380;DHT22;38377;47.418;18.882;2023-07-13T13:31:14;28.10;88.40
38380;DHT22;38377;47.418;18.882;2023-07-13T13:33:42;28.30;86.80
38380;DHT22;38377;47.418;18.882;2023-07-13T13:36:20;28.40;86.50
38380;DHT22;38377;47.418;18.882;2023-07-13T13:38:47;28.50;87.60
38380;DHT22;38377;47.418;18.882;2023-07-13T13:41:13;28.60;87.90
38380;DHT22;38377;47.418;18.882;2023-07-13T13:43:41;28.60;84.90
38380;DHT22;38377;47.418;18.882;2023-07-13T13:46:25;28.40;83.60
38380;DHT22;38377;47.418;18.882;2023-07-13T13:48:51;28.30;87.10
38380;DHT22;38377;47.418;18.882;2023-07-13T13:51:19;28.10;85.30
38380;DHT22;38377;47.418;18.882;2023-07-13T13:53:45;27.90;85.00
38380;DHT22;38377;47.418;18.882;2023-07-13T13:56:12;27.80;85.40
38380;DHT22;38377;47.418;18.882;2023-07-13T13:58:38;27.80;86.90
38380;DHT22;38377;47.418;18.882;2023-07-13T14:01:04;27.80;88.10
38380;DHT22;38377;47.418;18.882;2023-07-13T14:03:34;27.50;85.30
38380;DHT22;38377;47.418;18.882;2023-07-13T14:05:59;27.30;87.30
38380;DHT22;38377;47.418;18.882;2023-07-13T14:08:26;27.20;88.00
38380;DHT22;38377;47.418;18.882;2023-07-13T14:10:53;27.10;89.00
38380;DHT22;38377;47.418;18.882;2023-07-13T14:13:54;27.20;90.50
38380;DHT22;38377;47.418;18.882;2023-07-13T14:16:21;27.10;87.50
38380;DHT22;38377;47.418;18.882;2023-07-13T14:18:48;27.10;89.50
38380;DHT22;38377;47.418;18.882;2023-07-13T14:21:16;27.00;89.30
38380;DHT22;38377;47.418;18.882;2023-07-13T14:23:44;26.90;90.10
38380;DHT22;38377;47.418;18.882;2023-07-13T14:26:24;26.90;90.00
38380;DHT22;38377;47.418;18.882;2023-07-13T14:28:51;26.70;90.50
38380;DHT22;38377;47.418;18.882;2023-07-13T14:31:18;26.70;90.60
38380;DHT22;38377;47.418;18.882;2023-07-13T14:33:45;26.70;91.20
38380;DHT22;38377;47.418;18.882;2023-07-13T14:36:32;26.70;91.00
38380;DHT22;38377;47.418;18.882;2023-07-13T14:39:00;26.70;91.00
38380;DHT22;38377;47.418;18.882;2023-07-13T14:41:31;26.70;90.80
38380;DHT22;38377;47.418;18.882;2023-07-13T14:43:57;26.70;90.60
38380;DHT22;38377;47.418;18.882;2023-07-13T14:46:30;26.70;91.20
38380;DHT22;38377;47.418;18.882;2023-07-13T14:49:03;26.60;91.00
38380;DHT22;38377;47.418;18.882;2023-07-13T14:51:29;26.70;90.90
38380;DHT22;38377;47.418;18.882;2023-07-13T14:53:55;26.70;91.50
38380;DHT22;38377;47.418;18.882;2023-07-13T14:56:21;26.60;91.00
38380;DHT22;38377;47.418;18.882;2023-07-13T14:58:47;26.50;90.90
38380;DHT22;38377;47.418;18.882;2023-07-13T15:01:14;26.50;91.60
38380;DHT22;38377;47.418;18.882;2023-07-13T15:03:43;26.50;91.20
38380;DHT22;38377;47.418;18.882;2023-07-13T15:06:11;26.40;91.80
38380;DHT22;38377;47.418;18.882;2023-07-13T15:08:37;26.40;91.70
38380;DHT22;38377;47.418;18.882;2023-07-13T15:11:03;26.40;92.00
38380;DHT22;38377;47.418;18.882;2023-07-13T15:13:30;26.40;92.30
38380;DHT22;38377;47.418;18.882;2023-07-13T15:15:56;26.40;92.10
38380;DHT22;38377;47.418;18.882;2023-07-13T15:18:23;26.30;91.40
38380;DHT22;38377;47.418;18.882;2023-07-13T15:20:51;26.30;91.00
38380;DHT22;38377;47.418;18.882;2023-07-13T15:23:21;26.30;91.60
38380;DHT22;38377;47.418;18.882;2023-07-13T15:25:48;26.20;91.20
38380;DHT22;38377;47.418;18.882;2023-07-13T15:28:15;26.20;91.50
38380;DHT22;38377;47.418;18.882;2023-07-13T15:33:12;26.10;91.90
38380;DHT22;38377;47.418;18.882;2023-07-13T15:35:38;26.00;92.60
38380;DHT22;38377;47.418;18.882;2023-07-13T15:38:16;25.90;92.30
38380;DHT22;38377;47.418;18.882;2023-07-13T15:40:42;25.90;92.40
38380;DHT22;38377;47.418;18.882;2023-07-13T15:43:13;25.90;92.40
38380;DHT22;38377;47.418;18.882;2023-07-13T15:45:39;25.90;92.50
38380;DHT22;38377;47.418;18.882;2023-07-13T15:48:20;25.90;93.30
38380;DHT22;38377;47.418;18.882;2023-07-13T15:50:51;25.90;93.00
38380;DHT22;38377;47.418;18.882;2023-07-13T15:53:23;25.90;93.00
38380;DHT22;38377;47.418;18.882;2023-07-13T15:55:50;25.90;92.80
38380;DHT22;38377;47.418;18.882;2023-07-13T15:58:17;25.90;93.30
38380;DHT22;38377;47.418;18.882;2023-07-13T16:00:44;25.90;93.00
38380;DHT22;38377;47.418;18.882;2023-07-13T16:03:10;25.90;93.10
38380;DHT22;38377;47.418;18.882;2023-07-13T16:05:36;25.90;93.30
38380;DHT22;38377;47.418;18.882;2023-07-13T16:08:09;25.90;92.80
38380;DHT22;38377;47.418;18.882;2023-07-13T16:10:40;25.90;92.80
38380;DHT22;38377;47.418;18.882;2023-07-13T16:13:14;25.90;93.40